PWSweather.com
Personal Weather Stations
Station Observations
PITCARMI1
La Serra, CarmignanoIT 59015

La SerraCarmignanoIT 59015

Lat: 43.804429, Lon: 11.027222

Elevation: 525

Station Type: Davis Vantage Vue

http://www.meteocarmignano.it

Latest ConditionsUpdated 7:30:02 PM GMT+01:01 Friday, May 6, 2016
Currently Today's Max Today's Min Today's Average
Temperature 65.0°F18.3°C 77.5°F25.3°C 51.2°F10.7°C 65.3°F18.5°C
Dew Point 49.4°F9.7°C 52.8°F11.6°C 43.8°F6.6°C 46.8°F8.2°C
Winds 8.1 mph SW13.0 kmh SW 9.2 mph WSW14.8 kmh WSW - 2.2 mph 3.5 kmh
Wind Gusts 11.5 mph18.5 kmh 12.7 mph20.4 kmh - -
Humidity 57% 78% 33% 53%
Pressure 29.95 in1014.2 mb 30.10 in1019.3 mb 29.94 in1013.9 mb -
Hour Temp Dew Point Humidity Winds Wind Gusts Pressure Precip Precip Rate Daily Precip Total
07:30 PM 65.0°F18.3°C 49.4°F9.7°C 57% 8.1 mph SW13.0 kmh SW 11.5 mph18.5 kmh 29.95 in1014.2 mb - 0.00 in0.0 mm 0.00 in0.0 mm
07:00 PM 66.6°F19.2°C 51.4°F10.8°C 58% 5.8 mph SW9.3 kmh SW 10.4 mph16.7 kmh 29.94 in1013.9 mb - 0.00 in0.0 mm 0.00 in0.0 mm
06:30 PM 68.3°F20.2°C 52.0°F11.1°C 56% 9.2 mph WSW14.8 kmh WSW 12.7 mph20.4 kmh 29.94 in1013.9 mb - 0.00 in0.0 mm 0.00 in0.0 mm
06:00 PM 70.2°F21.2°C 52.8°F11.6°C 54% 6.9 mph WSW11.1 kmh WSW 11.5 mph18.5 kmh 29.94 in1013.9 mb - 0.00 in0.0 mm 0.00 in0.0 mm
05:30 PM 75.5°F24.2°C 48.8°F9.3°C 39% 2.3 mph SW3.7 kmh SW 4.6 mph7.4 kmh 29.94 in1013.9 mb - 0.00 in0.0 mm 0.00 in0.0 mm
05:00 PM 75.7°F24.3°C 49.0°F9.4°C 39% 5.8 mph SW9.3 kmh SW 6.9 mph11.1 kmh 29.94 in1013.9 mb - 0.00 in0.0 mm 0.00 in0.0 mm
04:30 PM 76.2°F24.6°C 48.0°F8.9°C 37% 2.3 mph SW3.7 kmh SW 4.6 mph7.4 kmh 29.95 in1014.2 mb - 0.00 in0.0 mm 0.00 in0.0 mm
04:00 PM 77.0°F25.0°C 46.5°F8.1°C 34% 1.2 mph WSW1.9 kmh WSW 2.3 mph3.7 kmh 29.95 in1014.2 mb - 0.00 in0.0 mm 0.00 in0.0 mm
03:30 PM 77.5°F25.3°C 46.9°F8.3°C 34% 1.2 mph SSW1.9 kmh SSW 2.3 mph3.7 kmh 29.96 in1014.6 mb - 0.00 in0.0 mm 0.00 in0.0 mm
03:00 PM 75.8°F24.3°C 46.2°F7.9°C 35% 1.2 mph SW1.9 kmh SW 3.5 mph5.6 kmh 29.97 in1014.9 mb - 0.00 in0.0 mm 0.00 in0.0 mm
02:30 PM 75.8°F24.3°C 44.7°F7.1°C 33% 4.6 mph E7.4 kmh E 4.6 mph7.4 kmh 29.98 in1015.2 mb - 0.00 in0.0 mm 0.00 in0.0 mm
02:00 PM 75.1°F23.9°C 46.3°F7.9°C 36% Calm Calm 1.2 mph1.9 kmh 29.99 in1015.6 mb - 0.00 in0.0 mm 0.00 in0.0 mm
01:30 PM 74.6°F23.7°C 47.3°F8.5°C 38% 2.3 mph E3.7 kmh E 3.5 mph5.6 kmh 30.00 in1015.9 mb - 0.00 in0.0 mm 0.00 in0.0 mm
01:00 PM 74.3°F23.5°C 47.7°F8.7°C 39% 1.2 mph WNW1.9 kmh WNW 2.3 mph3.7 kmh 30.00 in1015.9 mb - 0.00 in0.0 mm 0.00 in0.0 mm
12:30 PM 73.9°F23.3°C 48.1°F8.9°C 40% 4.6 mph E7.4 kmh E 6.9 mph11.1 kmh 30.01 in1016.3 mb - 0.00 in0.0 mm 0.00 in0.0 mm
12:00 PM 72.2°F22.3°C 46.6°F8.1°C 40% 2.3 mph ENE3.7 kmh ENE 4.6 mph7.4 kmh 30.02 in1016.6 mb - 0.00 in0.0 mm 0.00 in0.0 mm
11:30 AM 71.8°F22.1°C 46.2°F7.9°C 40% 2.3 mph NW3.7 kmh NW 3.5 mph5.6 kmh 30.03 in1016.9 mb - 0.00 in0.0 mm 0.00 in0.0 mm
11:00 AM 71.0°F21.7°C 47.4°F8.6°C 43% 1.2 mph NE1.9 kmh NE 5.8 mph9.3 kmh 30.03 in1016.9 mb - 0.00 in0.0 mm 0.00 in0.0 mm
10:30 AM 70.4°F21.3°C 47.5°F8.6°C 44% 3.5 mph E5.6 kmh E 5.8 mph9.3 kmh 30.04 in1017.3 mb - 0.00 in0.0 mm 0.00 in0.0 mm
10:00 AM 69.1°F20.6°C 48.0°F8.9°C 47% Calm Calm 8.1 mph13.0 kmh 30.04 in1017.3 mb - 0.00 in0.0 mm 0.00 in0.0 mm
09:30 AM 67.7°F19.8°C 48.9°F9.4°C 51% 3.5 mph NE5.6 kmh NE 4.6 mph7.4 kmh 30.04 in1017.3 mb - 0.00 in0.0 mm 0.00 in0.0 mm
09:00 AM 67.0°F19.4°C 50.3°F10.2°C 55% Calm Calm 1.2 mph1.9 kmh 30.05 in1017.6 mb - 0.00 in0.0 mm 0.00 in0.0 mm
08:30 AM 64.3°F17.9°C 48.3°F9.1°C 56% 1.2 mph E1.9 kmh E 3.5 mph5.6 kmh 30.05 in1017.6 mb - 0.00 in0.0 mm 0.00 in0.0 mm
08:00 AM 61.2°F16.2°C 48.9°F9.4°C 64% 1.2 mph ESE1.9 kmh ESE 2.3 mph3.7 kmh 30.05 in1017.6 mb - 0.00 in0.0 mm 0.00 in0.0 mm
07:30 AM 60.0°F15.6°C 47.8°F8.8°C 64% Calm Calm 1.2 mph1.9 kmh 30.05 in1017.6 mb - 0.00 in0.0 mm 0.00 in0.0 mm
07:00 AM 57.5°F14.2°C 47.0°F8.3°C 68% 1.2 mph E1.9 kmh E 2.3 mph3.7 kmh 30.06 in1017.9 mb - 0.00 in0.0 mm 0.00 in0.0 mm
06:30 AM 58.0°F14.4°C 46.7°F8.2°C 66% Calm Calm -- 30.06 in1017.9 mb - 0.00 in0.0 mm 0.00 in0.0 mm
06:00 AM 52.1°F11.2°C 44.8°F7.1°C 76% 1.2 mph WSW1.9 kmh WSW 1.2 mph1.9 kmh 30.07 in1018.3 mb - 0.00 in0.0 mm 0.00 in0.0 mm
05:30 AM 51.2°F10.7°C 44.6°F7.0°C 78% Calm Calm -- 30.07 in1018.3 mb - 0.00 in0.0 mm 0.00 in0.0 mm
05:00 AM 51.5°F10.8°C 43.8°F6.6°C 75% 1.2 mph NE1.9 kmh NE 1.2 mph1.9 kmh 30.06 in1017.9 mb - 0.00 in0.0 mm 0.00 in0.0 mm
04:30 AM 53.8°F12.1°C 43.9°F6.6°C 69% Calm Calm 1.2 mph1.9 kmh 30.07 in1018.3 mb - 0.00 in0.0 mm 0.00 in0.0 mm
04:00 AM 53.7°F12.1°C 44.2°F6.8°C 70% Calm Calm 1.2 mph1.9 kmh 30.07 in1018.3 mb - 0.00 in0.0 mm 0.00 in0.0 mm
03:30 AM 53.9°F12.2°C 43.9°F6.6°C 69% Calm Calm 1.2 mph1.9 kmh 30.07 in1018.3 mb - 0.00 in0.0 mm 0.00 in0.0 mm
03:00 AM 57.6°F14.2°C 43.8°F6.6°C 60% 1.2 mph ENE1.9 kmh ENE 1.2 mph1.9 kmh 30.07 in1018.3 mb - 0.00 in0.0 mm 0.00 in0.0 mm
02:30 AM 57.8°F14.3°C 44.0°F6.7°C 60% 1.2 mph N1.9 kmh N 2.3 mph3.7 kmh 30.07 in1018.3 mb - 0.00 in0.0 mm 0.00 in0.0 mm
02:00 AM 57.5°F14.2°C 44.1°F6.7°C 61% 1.2 mph NE1.9 kmh NE 2.3 mph3.7 kmh 30.08 in1018.6 mb - 0.00 in0.0 mm 0.00 in0.0 mm
01:30 AM 57.4°F14.1°C 44.1°F6.7°C 61% Calm Calm -- 30.08 in1018.6 mb - 0.00 in0.0 mm 0.00 in0.0 mm
01:00 AM 57.6°F14.2°C 44.2°F6.8°C 61% 1.2 mph 1.9 kmh 2.3 mph3.7 kmh 30.09 in1019.0 mb - 0.00 in0.0 mm 0.00 in0.0 mm
12:30 AM 57.6°F14.2°C 44.6°F7.0°C 62% 2.3 mph N3.7 kmh N 3.5 mph5.6 kmh 30.09 in1019.0 mb - 0.00 in0.0 mm 0.00 in0.0 mm
12:00 AM 58.5°F14.7°C 44.3°F6.8°C 59% 3.5 mph NE5.6 kmh NE 3.5 mph5.6 kmh 30.10 in1019.3 mb - 0.00 in0.0 mm 0.00 in0.0 mm